sensor_id;sensor_type;location;lat;lon;timestamp;pressure;altitude;pressure_sealevel;temperature;humidity
54270;BME280;40181;51.560;13.000;2023-04-08T00:01:02;101122.97;;;6.00;100.00
54270;BME280;40181;51.560;13.000;2023-04-08T00:03:31;101116.00;;;6.01;100.00
54270;BME280;40181;51.560;13.000;2023-04-08T00:06:00;101129.03;;;6.01;100.00
54270;BME280;40181;51.560;13.000;2023-04-08T00:08:32;101127.97;;;5.95;100.00
54270;BME280;40181;51.560;13.000;2023-04-08T00:11:01;101107.22;;;5.99;100.00
54270;BME280;40181;51.560;13.000;2023-04-08T00:13:30;101109.00;;;6.00;100.00
54270;BME280;40181;51.560;13.000;2023-04-08T00:15:59;101114.63;;;6.09;100.00
54270;BME280;40181;51.560;13.000;2023-04-08T00:18:28;101126.13;;;5.93;100.00
54270;BME280;40181;51.560;13.000;2023-04-08T00:20:57;101127.34;;;6.01;100.00
54270;BME280;40181;51.560;13.000;2023-04-08T00:23:26;101113.41;;;6.01;100.00
54270;BME280;40181;51.560;13.000;2023-04-08T00:25:58;101113.28;;;5.98;100.00
54270;BME280;40181;51.560;13.000;2023-04-08T00:28:27;101111.16;;;5.89;100.00
54270;BME280;40181;51.560;13.000;2023-04-08T00:30:56;101113.00;;;5.70;100.00
54270;BME280;40181;51.560;13.000;2023-04-08T00:33:25;101118.78;;;5.84;100.00
54270;BME280;40181;51.560;13.000;2023-04-08T00:35:54;101115.78;;;5.94;100.00
54270;BME280;40181;51.560;13.000;2023-04-08T00:38:23;101120.91;;;5.72;100.00
54270;BME280;40181;51.560;13.000;2023-04-08T00:40:52;101120.00;;;5.92;100.00
54270;BME280;40181;51.560;13.000;2023-04-08T00:43:24;101113.34;;;5.78;100.00
54270;BME280;40181;51.560;13.000;2023-04-08T00:45:53;101120.97;;;5.73;100.00
54270;BME280;40181;51.560;13.000;2023-04-08T00:48:22;101118.81;;;5.63;100.00
54270;BME280;40181;51.560;13.000;2023-04-08T00:50:51;101113.59;;;5.63;100.00
54270;BME280;40181;51.560;13.000;2023-04-08T00:53:20;101124.47;;;5.74;100.00
54270;BME280;40181;51.560;13.000;2023-04-08T00:55:49;101116.00;;;5.79;100.00
54270;BME280;40181;51.560;13.000;2023-04-08T00:58:18;101121.09;;;5.76;100.00
54270;BME280;40181;51.560;13.000;2023-04-08T01:00:57;101122.94;;;5.79;100.00
54270;BME280;40181;51.560;13.000;2023-04-08T01:03:40;101132.16;;;5.71;100.00
54270;BME280;40181;51.560;13.000;2023-04-08T01:06:22;101117.78;;;5.80;100.00
54270;BME280;40181;51.560;13.000;2023-04-08T01:08:58;101121.47;;;5.64;100.00
54270;BME280;40181;51.560;13.000;2023-04-08T01:11:28;101118.56;;;5.58;100.00
54270;BME280;40181;51.560;13.000;2023-04-08T01:14:00;101115.09;;;5.58;100.00
54270;BME280;40181;51.560;13.000;2023-04-08T01:16:33;101110.28;;;5.67;100.00
54270;BME280;40181;51.560;13.000;2023-04-08T01:19:04;101116.78;;;5.77;100.00
54270;BME280;40181;51.560;13.000;2023-04-08T01:21:35;101120.19;;;5.76;100.00
54270;BME280;40181;51.560;13.000;2023-04-08T01:24:08;101110.78;;;5.79;100.00
54270;BME280;40181;51.560;13.000;2023-04-08T01:26:43;101119.63;;;5.83;100.00
54270;BME280;40181;51.560;13.000;2023-04-08T01:29:13;101111.59;;;5.78;100.00
54270;BME280;40181;51.560;13.000;2023-04-08T01:31:42;101115.69;;;5.72;100.00
54270;BME280;40181;51.560;13.000;2023-04-08T01:34:13;101118.03;;;5.87;100.00
54270;BME280;40181;51.560;13.000;2023-04-08T01:36:43;101122.88;;;5.77;100.00
54270;BME280;40181;51.560;13.000;2023-04-08T01:39:14;101123.13;;;5.62;100.00
54270;BME280;40181;51.560;13.000;2023-04-08T01:41:49;101116.97;;;5.60;100.00
54270;BME280;40181;51.560;13.000;2023-04-08T01:44:21;101125.00;;;5.66;100.00
54270;BME280;40181;51.560;13.000;2023-04-08T01:46:52;101124.63;;;5.57;100.00
54270;BME280;40181;51.560;13.000;2023-04-08T01:49:23;101116.19;;;5.63;100.00
54270;BME280;40181;51.560;13.000;2023-04-08T01:51:53;101121.84;;;5.74;100.00
54270;BME280;40181;51.560;13.000;2023-04-08T01:54:24;101125.34;;;5.74;100.00
54270;BME280;40181;51.560;13.000;2023-04-08T01:56:57;101123.59;;;5.73;100.00
54270;BME280;40181;51.560;13.000;2023-04-08T01:59:28;101123.25;;;5.65;100.00
54270;BME280;40181;51.560;13.000;2023-04-08T02:02:00;101134.56;;;5.66;100.00
54270;BME280;40181;51.560;13.000;2023-04-08T02:04:29;101132.41;;;5.56;100.00
54270;BME280;40181;51.560;13.000;2023-04-08T02:07:00;101129.91;;;5.59;100.00
54270;BME280;40181;51.560;13.000;2023-04-08T02:09:29;101132.81;;;5.25;100.00
54270;BME280;40181;51.560;13.000;2023-04-08T02:12:01;101126.06;;;5.50;100.00
54270;BME280;40181;51.560;13.000;2023-04-08T02:14:30;101121.50;;;5.45;100.00
54270;BME280;40181;51.560;13.000;2023-04-08T02:17:04;101115.09;;;5.58;100.00
54270;BME280;40181;51.560;13.000;2023-04-08T02:19:43;101129.63;;;5.52;100.00
54270;BME280;40181;51.560;13.000;2023-04-08T02:22:22;101117.28;;;5.68;100.00
54270;BME280;40181;51.560;13.000;2023-04-08T02:24:59;101120.25;;;5.56;100.00
54270;BME280;40181;51.560;13.000;2023-04-08T02:27:33;101126.19;;;5.73;100.00
54270;BME280;40181;51.560;13.000;2023-04-08T02:30:04;101140.00;;;5.51;100.00
54270;BME280;40181;51.560;13.000;2023-04-08T02:32:35;101140.00;;;5.51;100.00
54270;BME280;40181;51.560;13.000;2023-04-08T02:35:05;101123.03;;;5.61;100.00
54270;BME280;40181;51.560;13.000;2023-04-08T02:37:35;101129.63;;;5.52;100.00
54270;BME280;40181;51.560;13.000;2023-04-08T02:40:21;101126.81;;;5.48;100.00
54270;BME280;40181;51.560;13.000;2023-04-08T02:42:54;101135.94;;;5.58;100.00
54270;BME280;40181;51.560;13.000;2023-04-08T02:45:27;101134.09;;;5.55;100.00
54270;BME280;40181;51.560;13.000;2023-04-08T02:47:59;101141.50;;;5.46;100.00
54270;BME280;40181;51.560;13.000;2023-04-08T02:50:28;101141.16;;;5.58;100.00
54270;BME280;40181;51.560;13.000;2023-04-08T02:52:57;101133.28;;;5.56;100.00
54270;BME280;40181;51.560;13.000;2023-04-08T02:55:26;101144.03;;;5.44;100.00
54270;BME280;40181;51.560;13.000;2023-04-08T02:57:58;101137.59;;;5.56;100.00
54270;BME280;40181;51.560;13.000;2023-04-08T03:00:27;101137.09;;;5.64;100.00
54270;BME280;40181;51.560;13.000;2023-04-08T03:02:56;101141.16;;;5.58;100.00
54270;BME280;40181;51.560;13.000;2023-04-08T03:05:25;101158.50;;;5.57;100.00
54270;BME280;40181;51.560;13.000;2023-04-08T03:07:54;101141.59;;;5.47;100.00
54270;BME280;40181;51.560;13.000;2023-04-08T03:10:23;101137.84;;;5.40;100.00
54270;BME280;40181;51.560;13.000;2023-04-08T03:12:53;101146.06;;;5.50;100.00
54270;BME280;40181;51.560;13.000;2023-04-08T03:15:24;101140.28;;;5.37;100.00
54270;BME280;40181;51.560;13.000;2023-04-08T03:17:53;101145.50;;;5.37;100.00
54270;BME280;40181;51.560;13.000;2023-04-08T03:20:22;101140.38;;;5.19;100.00
54270;BME280;40181;51.560;13.000;2023-04-08T03:22:51;101135.78;;;5.33;100.00
54270;BME280;40181;51.560;13.000;2023-04-08T03:25:20;101142.34;;;5.45;100.00
54270;BME280;40181;51.560;13.000;2023-04-08T03:27:50;101150.31;;;5.28;100.00
54270;BME280;40181;51.560;13.000;2023-04-08T03:30:19;101125.47;;;5.36;100.00
54270;BME280;40181;51.560;13.000;2023-04-08T03:32:50;101133.63;;;5.44;100.00
54270;BME280;40181;51.560;13.000;2023-04-08T03:35:19;101154.41;;;5.43;100.00
54270;BME280;40181;51.560;13.000;2023-04-08T03:37:48;101148.66;;;5.50;100.00
54270;BME280;40181;51.560;13.000;2023-04-08T03:40:19;101157.97;;;5.45;100.00
54270;BME280;40181;51.560;13.000;2023-04-08T03:42:48;101161.53;;;5.47;100.00
54270;BME280;40181;51.560;13.000;2023-04-08T03:45:17;101160.59;;;5.45;100.00
54270;BME280;40181;51.560;13.000;2023-04-08T03:47:46;101177.34;;;5.50;100.00
54270;BME280;40181;51.560;13.000;2023-04-08T03:50:18;101159.88;;;5.49;100.00
54270;BME280;40181;51.560;13.000;2023-04-08T03:52:47;101167.69;;;5.49;100.00
54270;BME280;40181;51.560;13.000;2023-04-08T03:55:16;101177.16;;;5.47;100.00
54270;BME280;40181;51.560;13.000;2023-04-08T03:57:45;101176.50;;;5.31;100.00
54270;BME280;40181;51.560;13.000;2023-04-08T04:00:14;101176.16;;;5.43;100.00
54270;BME280;40181;51.560;13.000;2023-04-08T04:02:43;101166.75;;;5.27;100.00
54270;BME280;40181;51.560;13.000;2023-04-08T04:05:15;101167.03;;;5.53;100.00
54270;BME280;40181;51.560;13.000;2023-04-08T04:07:44;101171.34;;;5.33;100.00
54270;BME280;40181;51.560;13.000;2023-04-08T04:10:13;101158.66;;;5.60;100.00
54270;BME280;40181;51.560;13.000;2023-04-08T04:12:42;101166.81;;;5.48;100.00
54270;BME280;40181;51.560;13.000;2023-04-08T04:15:12;101176.34;;;5.48;100.00
54270;BME280;40181;51.560;13.000;2023-04-08T04:17:41;101170.38;;;5.50;100.00
54270;BME280;40181;51.560;13.000;2023-04-08T04:20:11;101176.34;;;5.48;100.00
54270;BME280;40181;51.560;13.000;2023-04-08T04:22:43;101185.41;;;5.36;100.00
54270;BME280;40181;51.560;13.000;2023-04-08T04:25:12;101178.19;;;5.50;100.00
54270;BME280;40181;51.560;13.000;2023-04-08T04:27:41;101181.94;;;5.36;100.00
54270;BME280;40181;51.560;13.000;2023-04-08T04:30:10;101195.28;;;5.44;100.00
54270;BME280;40181;51.560;13.000;2023-04-08T04:32:40;101197.81;;;5.42;100.00
54270;BME280;40181;51.560;13.000;2023-04-08T04:35:09;101193.50;;;5.43;100.00
54270;BME280;40181;51.560;13.000;2023-04-08T04:37:41;101186.78;;;5.48;100.00
54270;BME280;40181;51.560;13.000;2023-04-08T04:40:10;101192.56;;;5.40;100.00
54270;BME280;40181;51.560;13.000;2023-04-08T04:42:39;101203.53;;;5.33;100.00
54270;BME280;40181;51.560;13.000;2023-04-08T04:45:09;101191.84;;;5.45;100.00
54270;BME280;40181;51.560;13.000;2023-04-08T04:47:38;101207.38;;;5.42;100.00
54270;BME280;40181;51.560;13.000;2023-04-08T04:50:08;101193.50;;;5.43;100.00
54270;BME280;40181;51.560;13.000;2023-04-08T04:52:37;101198.44;;;5.36;100.00
54270;BME280;40181;51.560;13.000;2023-04-08T04:55:09;101191.16;;;5.29;100.00
54270;BME280;40181;51.560;13.000;2023-04-08T04:57:40;101198.44;;;5.36;100.00
54270;BME280;40181;51.560;13.000;2023-04-08T05:00:09;101202.41;;;5.48;100.00
54270;BME280;40181;51.560;13.000;2023-04-08T05:02:39;101204.13;;;5.47;100.00
54270;BME280;40181;51.560;13.000;2023-04-08T05:05:08;101204.81;;;5.43;100.00
54270;BME280;40181;51.560;13.000;2023-04-08T05:07:37;101209.28;;;5.46;100.00
54270;BME280;40181;51.560;13.000;2023-04-08T05:10:09;101201.38;;;5.44;100.00
54270;BME280;40181;51.560;13.000;2023-04-08T05:12:38;101204.56;;;5.37;100.00
54270;BME280;40181;51.560;13.000;2023-04-08T05:15:08;101204.75;;;5.42;100.00
54270;BME280;40181;51.560;13.000;2023-04-08T05:17:37;101203.78;;;5.39;100.00
54270;BME280;40181;51.560;13.000;2023-04-08T05:20:07;101209.28;;;5.46;100.00
54270;BME280;40181;51.560;13.000;2023-04-08T05:22:37;101206.88;;;5.50;100.00
54270;BME280;40181;51.560;13.000;2023-04-08T05:25:09;101215.03;;;5.38;100.00
54270;BME280;40181;51.560;13.000;2023-04-08T05:27:38;101213.00;;;5.51;100.00
54270;BME280;40181;51.560;13.000;2023-04-08T05:30:08;101222.91;;;5.60;100.00
54270;BME280;40181;51.560;13.000;2023-04-08T05:32:38;101216.22;;;5.65;100.00
54270;BME280;40181;51.560;13.000;2023-04-08T05:35:08;101220.09;;;5.55;100.00
54270;BME280;40181;51.560;13.000;2023-04-08T05:37:37;101227.47;;;5.64;100.00
54270;BME280;40181;51.560;13.000;2023-04-08T05:40:09;101234.09;;;5.57;100.00
54270;BME280;40181;51.560;13.000;2023-04-08T05:42:39;101242.47;;;5.70;100.00
54270;BME280;40181;51.560;13.000;2023-04-08T05:45:09;101249.34;;;5.67;100.00
54270;BME280;40181;51.560;13.000;2023-04-08T05:47:38;101252.22;;;5.74;100.00
54270;BME280;40181;51.560;13.000;2023-04-08T05:50:08;101260.09;;;5.75;100.00
54270;BME280;40181;51.560;13.000;2023-04-08T05:52:40;101249.13;;;5.63;100.00
54270;BME280;40181;51.560;13.000;2023-04-08T05:55:13;101248.53;;;5.68;100.00
54270;BME280;40181;51.560;13.000;2023-04-08T05:57:42;101263.59;;;5.76;100.00
54270;BME280;40181;51.560;13.000;2023-04-08T06:00:12;101257.06;;;5.86;100.00
54270;BME280;40181;51.560;13.000;2023-04-08T06:02:41;101272.22;;;5.75;100.00
54270;BME280;40181;51.560;13.000;2023-04-08T06:05:10;101267.09;;;5.76;100.00
54270;BME280;40181;51.560;13.000;2023-04-08T06:07:39;101264.69;;;5.81;100.00
54270;BME280;40181;51.560;13.000;2023-04-08T06:10:08;101259.75;;;5.87;100.00
54270;BME280;40181;51.560;13.000;2023-04-08T06:12:40;101265.44;;;5.98;100.00
54270;BME280;40181;51.560;13.000;2023-04-08T06:15:09;101263.72;;;5.99;100.00
54270;BME280;40181;51.560;13.000;2023-04-08T06:17:38;101272.91;;;5.90;100.00
54270;BME280;40181;51.560;13.000;2023-04-08T06:20:08;101282.72;;;5.96;100.00
54270;BME280;40181;51.560;13.000;2023-04-08T06:22:37;101275.66;;;5.93;100.00
54270;BME280;40181;51.560;13.000;2023-04-08T06:25:07;101275.66;;;5.93;100.00
54270;BME280;40181;51.560;13.000;2023-04-08T06:27:36;101278.47;;;5.98;100.00
54270;BME280;40181;51.560;13.000;2023-04-08T06:30:09;101278.69;;;6.03;100.00
54270;BME280;40181;51.560;13.000;2023-04-08T06:32:38;101274.16;;;5.99;100.00
54270;BME280;40181;51.560;13.000;2023-04-08T06:35:07;101281.91;;;5.97;100.00
54270;BME280;40181;51.560;13.000;2023-04-08T06:37:36;101279.16;;;5.94;100.00
54270;BME280;40181;51.560;13.000;2023-04-08T06:40:06;101285.09;;;6.09;100.00
54270;BME280;40181;51.560;13.000;2023-04-08T06:42:36;101301.19;;;6.01;100.00
54270;BME280;40181;51.560;13.000;2023-04-08T06:45:09;101290.75;;;6.20;100.00
54270;BME280;40181;51.560;13.000;2023-04-08T06:47:38;101297.13;;;6.06;100.00
54270;BME280;40181;51.560;13.000;2023-04-08T06:50:08;101290.44;;;6.13;100.00
54270;BME280;40181;51.560;13.000;2023-04-08T06:52:37;101295.03;;;6.18;100.00
54270;BME280;40181;51.560;13.000;2023-04-08T06:55:07;101297.63;;;6.18;100.00
54270;BME280;40181;51.560;13.000;2023-04-08T06:57:36;101308.66;;;6.32;100.00
54270;BME280;40181;51.560;13.000;2023-04-08T07:00:09;101309.88;;;6.41;100.00
54270;BME280;40181;51.560;13.000;2023-04-08T07:02:38;101315.75;;;6.35;100.00
54270;BME280;40181;51.560;13.000;2023-04-08T07:05:08;101317.25;;;6.30;100.00
54270;BME280;40181;51.560;13.000;2023-04-08T07:07:37;101326.19;;;6.35;100.00
54270;BME280;40181;51.560;13.000;2023-04-08T07:10:07;101318.66;;;6.43;100.00
54270;BME280;40181;51.560;13.000;2023-04-08T07:12:36;101313.63;;;6.47;100.00
54270;BME280;40181;51.560;13.000;2023-04-08T07:15:09;101316.13;;;6.44;100.00
54270;BME280;40181;51.560;13.000;2023-04-08T07:17:38;101310.28;;;6.50;100.00
54270;BME280;40181;51.560;13.000;2023-04-08T07:20:08;101317.28;;;6.51;100.00
54270;BME280;40181;51.560;13.000;2023-04-08T07:22:37;101323.09;;;6.44;100.00
54270;BME280;40181;51.560;13.000;2023-04-08T07:25:07;101320.47;;;6.65;100.00
54270;BME280;40181;51.560;13.000;2023-04-08T07:27:36;101312.97;;;6.73;100.00
54270;BME280;40181;51.560;13.000;2023-04-08T07:30:08;101321.25;;;6.62;100.00
54270;BME280;40181;51.560;13.000;2023-04-08T07:32:38;101325.66;;;6.63;100.00
54270;BME280;40181;51.560;13.000;2023-04-08T07:35:08;101330.53;;;6.56;100.00
54270;BME280;40181;51.560;13.000;2023-04-08T07:37:37;101322.44;;;6.71;100.00
54270;BME280;40181;51.560;13.000;2023-04-08T07:40:07;101332.13;;;6.73;100.00
54270;BME280;40181;51.560;13.000;2023-04-08T07:42:40;101323.72;;;6.81;100.00
54270;BME280;40181;51.560;13.000;2023-04-08T07:45:09;101331.56;;;6.81;100.00
54270;BME280;40181;51.560;13.000;2023-04-08T07:47:38;101325.00;;;6.90;100.00
54270;BME280;40181;51.560;13.000;2023-04-08T07:50:08;101318.88;;;6.90;100.00
54270;BME280;40181;51.560;13.000;2023-04-08T07:52:37;101323.78;;;7.03;100.00
54270;BME280;40181;51.560;13.000;2023-04-08T07:55:08;101335.88;;;7.01;100.00
54270;BME280;40181;51.560;13.000;2023-04-08T07:57:40;101346.28;;;7.00;100.00
54270;BME280;40181;51.560;13.000;2023-04-08T08:00:09;101344.53;;;7.00;100.00
54270;BME280;40181;51.560;13.000;2023-04-08T08:02:45;101345.28;;;6.98;100.00
54270;BME280;40181;51.560;13.000;2023-04-08T08:05:14;101343.19;;;7.10;100.00
54270;BME280;40181;51.560;13.000;2023-04-08T08:07:43;101353.84;;;7.15;100.00
54270;BME280;40181;51.560;13.000;2023-04-08T08:10:12;101360.78;;;7.14;100.00
54270;BME280;40181;51.560;13.000;2023-04-08T08:12:43;101351.34;;;7.18;100.00
54270;BME280;40181;51.560;13.000;2023-04-08T08:15:12;101355.50;;;7.13;100.00
54270;BME280;40181;51.560;13.000;2023-04-08T08:17:41;101364.13;;;7.33;100.00
54270;BME280;40181;51.560;13.000;2023-04-08T08:20:10;101359.72;;;7.32;100.00
54270;BME280;40181;51.560;13.000;2023-04-08T08:22:41;101370.16;;;7.30;100.00
54270;BME280;40181;51.560;13.000;2023-04-08T08:25:10;101371.78;;;7.28;100.00
54270;BME280;40181;51.560;13.000;2023-04-08T08:27:39;101369.34;;;7.33;100.00
54270;BME280;40181;51.560;13.000;2023-04-08T08:30:11;101371.75;;;7.27;100.00
54270;BME280;40181;51.560;13.000;2023-04-08T08:32:40;101374.56;;;7.33;100.00
54270;BME280;40181;51.560;13.000;2023-04-08T08:35:09;101374.91;;;7.41;100.00
54270;BME280;40181;51.560;13.000;2023-04-08T08:37:38;101372.00;;;7.56;100.00
54270;BME280;40181;51.560;13.000;2023-04-08T08:40:08;101369.91;;;7.70;100.00
54270;BME280;40181;51.560;13.000;2023-04-08T08:42:38;101380.31;;;7.68;100.00
54270;BME280;40181;51.560;13.000;2023-04-08T08:45:10;101372.41;;;7.67;100.00
54270;BME280;40181;51.560;13.000;2023-04-08T08:47:40;101372.16;;;7.60;100.00
54270;BME280;40181;51.560;13.000;2023-04-08T08:50:09;101379.78;;;7.77;100.00
54270;BME280;40181;51.560;13.000;2023-04-08T08:52:38;101372.94;;;7.81;100.00
54270;BME280;40181;51.560;13.000;2023-04-08T08:55:08;101381.44;;;7.75;100.00
54270;BME280;40181;51.560;13.000;2023-04-08T08:57:36;101387.13;;;7.65;100.00
54270;BME280;40181;51.560;13.000;2023-04-08T09:00:07;101381.31;;;7.72;100.00
54270;BME280;40181;51.560;13.000;2023-04-08T09:02:40;101386.09;;;7.59;100.00
54270;BME280;40181;51.560;13.000;2023-04-08T09:05:09;101390.16;;;7.75;100.00
54270;BME280;40181;51.560;13.000;2023-04-08T09:07:39;101390.09;;;7.97;100.00
54270;BME280;40181;51.560;13.000;2023-04-08T09:10:09;101390.53;;;7.85;100.00
54270;BME280;40181;51.560;13.000;2023-04-08T09:12:52;101400.31;;;7.91;100.00
54270;BME280;40181;51.560;13.000;2023-04-08T09:15:25;101408.34;;;7.95;100.00
54270;BME280;40181;51.560;13.000;2023-04-08T09:17:54;101400.31;;;7.91;100.00
54270;BME280;40181;51.560;13.000;2023-04-08T09:20:23;101408.47;;;7.98;100.00
54270;BME280;40181;51.560;13.000;2023-04-08T09:22:57;101400.81;;;8.03;100.00
54270;BME280;40181;51.560;13.000;2023-04-08T09:25:28;101407.81;;;8.04;100.00
54270;BME280;40181;51.560;13.000;2023-04-08T09:27:59;101420.31;;;8.36;100.00
54270;BME280;40181;51.560;13.000;2023-04-08T09:30:31;101415.25;;;8.40;100.00
54270;BME280;40181;51.560;13.000;2023-04-08T09:33:00;101414.88;;;8.54;100.00
54270;BME280;40181;51.560;13.000;2023-04-08T09:35:31;101420.91;;;8.51;100.00
54270;BME280;40181;51.560;13.000;2023-04-08T09:38:00;101419.81;;;8.46;99.96
54270;BME280;40181;51.560;13.000;2023-04-08T09:40:33;101428.97;;;8.57;98.40
54270;BME280;40181;51.560;13.000;2023-04-08T09:43:04;101419.44;;;8.60;96.85
54270;BME280;40181;51.560;13.000;2023-04-08T09:45:38;101431.03;;;8.66;98.17
54270;BME280;40181;51.560;13.000;2023-04-08T09:48:11;101426.34;;;8.57;98.05
54270;BME280;40181;51.560;13.000;2023-04-08T09:50:49;101424.66;;;8.60;96.44
54270;BME280;40181;51.560;13.000;2023-04-08T09:53:25;101425.41;;;8.55;94.08
54270;BME280;40181;51.560;13.000;2023-04-08T09:55:59;101421.25;;;8.62;93.28
54270;BME280;40181;51.560;13.000;2023-04-08T09:58:32;101422.41;;;8.69;93.90
54270;BME280;40181;51.560;13.000;2023-04-08T10:01:13;101424.66;;;8.84;94.00
54270;BME280;40181;51.560;13.000;2023-04-08T10:03:47;101423.75;;;8.83;93.88
54270;BME280;40181;51.560;13.000;2023-04-08T10:06:19;101428.38;;;8.91;93.58
54270;BME280;40181;51.560;13.000;2023-04-08T10:08:50;101426.06;;;9.00;92.44
54270;BME280;40181;51.560;13.000;2023-04-08T10:11:19;101423.97;;;8.90;91.44
54270;BME280;40181;51.560;13.000;2023-04-08T10:13:48;101423.53;;;9.03;91.17
54270;BME280;40181;51.560;13.000;2023-04-08T10:16:21;101427.16;;;9.07;89.28
54270;BME280;40181;51.560;13.000;2023-04-08T10:18:52;101430.84;;;9.12;89.09
54270;BME280;40181;51.560;13.000;2023-04-08T10:21:32;101421.50;;;9.20;89.22
54270;BME280;40181;51.560;13.000;2023-04-08T10:24:05;101430.00;;;9.13;89.51
54270;BME280;40181;51.560;13.000;2023-04-08T10:26:37;101422.56;;;9.27;88.41
54270;BME280;40181;51.560;13.000;2023-04-08T10:32:30;101430.53;;;9.30;86.58
54270;BME280;40181;51.560;13.000;2023-04-08T10:35:08;101437.53;;;9.30;87.17
54270;BME280;40181;51.560;13.000;2023-04-08T10:37:37;101426.09;;;9.27;87.55
54270;BME280;40181;51.560;13.000;2023-04-08T10:40:17;101423.88;;;9.40;86.23
54270;BME280;40181;51.560;13.000;2023-04-08T10:42:46;101424.34;;;9.28;85.50
54270;BME280;40181;51.560;13.000;2023-04-08T10:45:21;101437.69;;;9.34;85.35
54270;BME280;40181;51.560;13.000;2023-04-08T10:47:53;101421.78;;;9.30;84.60
54270;BME280;40181;51.560;13.000;2023-04-08T10:50:22;101429.91;;;9.37;83.76
54270;BME280;40181;51.560;13.000;2023-04-08T10:52:52;101435.59;;;9.51;83.58
54270;BME280;40181;51.560;13.000;2023-04-08T10:55:22;101432.91;;;9.22;82.87
54270;BME280;40181;51.560;13.000;2023-04-08T10:57:53;101437.75;;;9.37;82.30
54270;BME280;40181;51.560;13.000;2023-04-08T11:00:31;101432.59;;;9.40;82.83
54270;BME280;40181;51.560;13.000;2023-04-08T11:03:05;101436.38;;;9.49;82.71
54270;BME280;40181;51.560;13.000;2023-04-08T11:05:38;101426.09;;;9.55;80.41
54270;BME280;40181;51.560;13.000;2023-04-08T11:08:07;101428.91;;;9.61;78.50
54270;BME280;40181;51.560;13.000;2023-04-08T11:10:37;101423.94;;;9.71;78.36
54270;BME280;40181;51.560;13.000;2023-04-08T11:13:07;101439.63;;;9.69;76.01
54270;BME280;40181;51.560;13.000;2023-04-08T11:15:37;101429.19;;;9.71;75.44
54270;BME280;40181;51.560;13.000;2023-04-08T11:18:09;101437.16;;;9.74;75.39
54270;BME280;40181;51.560;13.000;2023-04-08T11:20:38;101435.50;;;9.77;75.74
54270;BME280;40181;51.560;13.000;2023-04-08T11:23:11;101439.84;;;9.75;76.08
54270;BME280;40181;51.560;13.000;2023-04-08T11:25:41;101434.47;;;9.72;77.63
54270;BME280;40181;51.560;13.000;2023-04-08T11:28:12;101439.31;;;9.87;78.04
54270;BME280;40181;51.560;13.000;2023-04-08T11:30:42;101434.53;;;9.74;77.12
54270;BME280;40181;51.560;13.000;2023-04-08T11:33:14;101436.50;;;9.81;76.60
54270;BME280;40181;51.560;13.000;2023-04-08T11:35:44;101436.69;;;9.87;77.71
54270;BME280;40181;51.560;13.000;2023-04-08T11:38:13;101447.69;;;10.04;77.44
54270;BME280;40181;51.560;13.000;2023-04-08T11:40:51;101438.66;;;9.94;75.92
54270;BME280;40181;51.560;13.000;2023-04-08T11:43:21;101450.97;;;9.97;77.67
54270;BME280;40181;51.560;13.000;2023-04-08T11:45:50;101444.38;;;9.81;78.28
54270;BME280;40181;51.560;13.000;2023-04-08T11:48:22;101442.03;;;9.90;77.69
54270;BME280;40181;51.560;13.000;2023-04-08T11:51:02;101445.31;;;9.83;79.22
54270;BME280;40181;51.560;13.000;2023-04-08T11:53:33;101445.38;;;9.85;79.34
54270;BME280;40181;51.560;13.000;2023-04-08T11:56:16;101440.34;;;9.92;80.00
54270;BME280;40181;51.560;13.000;2023-04-08T11:58:46;101449.81;;;9.87;78.30
54270;BME280;40181;51.560;13.000;2023-04-08T12:01:15;101439.31;;;9.87;77.54
54270;BME280;40181;51.560;13.000;2023-04-08T12:04:00;101450.19;;;10.00;78.19
54270;BME280;40181;51.560;13.000;2023-04-08T12:06:30;101450.03;;;9.95;79.04
54270;BME280;40181;51.560;13.000;2023-04-08T12:09:00;101446.50;;;9.93;78.69
54270;BME280;40181;51.560;13.000;2023-04-08T12:11:29;101449.84;;;9.89;79.67
54270;BME280;40181;51.560;13.000;2023-04-08T12:13:57;101458.63;;;9.89;79.04
54270;BME280;40181;51.560;13.000;2023-04-08T12:16:27;101452.25;;;9.81;79.21
54270;BME280;40181;51.560;13.000;2023-04-08T12:18:56;101451.50;;;9.85;79.45
54270;BME280;40181;51.560;13.000;2023-04-08T12:21:28;101452.81;;;9.71;80.26
54270;BME280;40181;51.560;13.000;2023-04-08T12:23:58;101454.22;;;9.59;80.04
54270;BME280;40181;51.560;13.000;2023-04-08T12:26:27;101452.16;;;9.78;79.84
54270;BME280;40181;51.560;13.000;2023-04-08T12:28:56;101472.47;;;9.56;79.49
54270;BME280;40181;51.560;13.000;2023-04-08T12:31:25;101470.13;;;9.65;79.99
54270;BME280;40181;51.560;13.000;2023-04-08T12:33:55;101470.13;;;9.65;80.08
54270;BME280;40181;51.560;13.000;2023-04-08T12:36:26;101466.47;;;9.60;79.18
54270;BME280;40181;51.560;13.000;2023-04-08T12:38:56;101478.50;;;9.81;78.93
54270;BME280;40181;51.560;13.000;2023-04-08T12:41:25;101466.56;;;9.63;78.45
54270;BME280;40181;51.560;13.000;2023-04-08T12:43:54;101467.09;;;9.80;78.41
54270;BME280;40181;51.560;13.000;2023-04-08T12:46:23;101460.72;;;9.72;76.71
54270;BME280;40181;51.560;13.000;2023-04-08T12:48:52;101463.38;;;10.03;75.94
54270;BME280;40181;51.560;13.000;2023-04-08T12:51:21;101473.88;;;10.01;73.67
54270;BME280;40181;51.560;13.000;2023-04-08T12:53:53;101466.06;;;10.04;74.92
54270;BME280;40181;51.560;13.000;2023-04-08T12:56:22;101465.16;;;10.02;74.03
54270;BME280;40181;51.560;13.000;2023-04-08T12:58:51;101470.75;;;9.57;74.28
54270;BME280;40181;51.560;13.000;2023-04-08T13:01:21;101469.41;;;9.69;74.38
54270;BME280;40181;51.560;13.000;2023-04-08T13:03:50;101474.78;;;9.74;75.41